createdAt,value
2023-02-06T00:02:59.986Z,100.00
2023-02-06T00:08:07.214Z,100.00
2023-02-06T00:13:12.247Z,100.00
2023-02-06T00:18:19.867Z,100.00
2023-02-06T00:23:24.801Z,100.00
2023-02-06T00:28:29.838Z,100.00
2023-02-06T00:33:38.653Z,100.00
2023-02-06T00:38:43.933Z,100.00
2023-02-06T00:43:49.070Z,100.00
2023-02-06T00:48:56.890Z,100.00
2023-02-06T00:54:01.800Z,100.00
2023-02-06T00:59:06.919Z,100.00
2023-02-06T01:04:14.406Z,100.00
2023-02-06T01:09:19.391Z,100.00
2023-02-06T01:14:24.712Z,100.00
2023-02-06T01:19:32.377Z,100.00
2023-02-06T01:24:37.387Z,100.00
2023-02-06T01:29:42.630Z,100.00
2023-02-06T01:34:50.214Z,100.00
2023-02-06T01:39:56.945Z,100.00
2023-02-06T01:45:37.744Z,100.00
2023-02-06T01:50:49.594Z,100.00
2023-02-06T01:55:57.268Z,100.00
2023-02-06T02:01:03.798Z,100.00
2023-02-06T02:06:14.910Z,100.00
2023-02-06T02:11:23.322Z,100.00
2023-02-06T02:16:35.847Z,100.00
2023-02-06T02:22:27.613Z,100.00
2023-02-06T02:28:08.237Z,100.00
2023-02-06T02:33:29.021Z,100.00
2023-02-06T02:38:48.105Z,100.00
2023-02-06T02:43:58.945Z,100.00
2023-02-06T02:49:07.617Z,100.00
2023-02-06T02:54:16.166Z,100.00
2023-02-06T02:59:26.905Z,100.00
2023-02-06T03:04:37.880Z,100.00
2023-02-06T03:09:56.167Z,100.00
2023-02-06T03:15:06.756Z,100.00
2023-02-06T03:20:14.570Z,100.00
2023-02-06T03:25:31.260Z,100.00
2023-02-06T03:30:38.997Z,100.00
2023-02-06T03:35:45.232Z,100.00
2023-02-06T03:40:54.362Z,100.00
2023-02-06T03:46:03.006Z,100.00
2023-02-06T03:51:14.878Z,100.00
2023-02-06T03:56:30.981Z,100.00
2023-02-06T04:01:36.192Z,100.00
2023-02-06T04:06:41.113Z,100.00
2023-02-06T04:11:49.203Z,100.00
2023-02-06T04:16:54.513Z,100.00
2023-02-06T04:21:59.909Z,100.00
2023-02-06T04:27:07.528Z,100.00
2023-02-06T04:32:12.708Z,100.00
2023-02-06T04:37:17.679Z,100.00
2023-02-06T04:42:26.172Z,100.00
2023-02-06T04:47:31.136Z,100.00
2023-02-06T04:52:36.334Z,100.00
2023-02-06T04:57:44.068Z,100.00
2023-02-06T05:02:49.243Z,100.00
2023-02-06T05:07:54.103Z,100.00
2023-02-06T05:13:01.532Z,100.00
2023-02-06T05:18:07.649Z,100.00
2023-02-06T05:23:12.922Z,100.00
2023-02-06T05:28:21.387Z,100.00
2023-02-06T05:33:26.732Z,100.00
2023-02-06T05:38:33.479Z,100.00
2023-02-06T05:43:41.032Z,100.00
2023-02-06T05:48:45.922Z,100.00
2023-02-06T05:53:51.024Z,100.00
2023-02-06T05:58:58.635Z,100.00
2023-02-06T06:04:03.583Z,100.00
2023-02-06T06:09:08.748Z,100.00
2023-02-06T06:14:16.673Z,100.00
2023-02-06T06:19:21.804Z,100.00
2023-02-06T06:24:28.097Z,100.00
2023-02-06T06:29:42.080Z,100.00
2023-02-06T06:34:48.574Z,100.00
2023-02-06T06:39:58.154Z,100.00
2023-02-06T06:45:05.765Z,100.00
2023-02-06T06:50:11.400Z,100.00
2023-02-06T06:55:17.447Z,100.00
2023-02-06T07:00:25.158Z,100.00
2023-02-06T07:05:30.228Z,100.00
2023-02-06T07:10:35.137Z,100.00
2023-02-06T07:15:42.683Z,100.00
2023-02-06T07:20:48.342Z,100.00
2023-02-06T07:25:54.073Z,100.00
2023-02-06T07:31:03.240Z,100.00
2023-02-06T07:36:12.228Z,100.00
2023-02-06T07:41:18.459Z,100.00
2023-02-06T07:46:29.345Z,100.00
2023-02-06T07:51:34.464Z,100.00
2023-02-06T07:56:40.196Z,100.00
2023-02-06T08:01:48.079Z,100.00
2023-02-06T08:06:54.009Z,100.00
2023-02-06T08:11:58.942Z,100.00
2023-02-06T08:17:07.745Z,100.00
2023-02-06T08:22:12.657Z,100.00
2023-02-06T08:27:18.005Z,100.00
2023-02-06T08:32:28.721Z,100.00
2023-02-06T08:37:35.109Z,100.00
2023-02-06T08:42:40.228Z,100.00
2023-02-06T08:47:48.867Z,100.00
2023-02-06T08:52:53.741Z,100.00
2023-02-06T08:58:00.475Z,100.00
2023-02-06T09:03:08.381Z,100.00
2023-02-06T09:08:13.481Z,100.00
2023-02-06T09:13:18.460Z,100.00
2023-02-06T09:18:26.192Z,100.00
2023-02-06T09:23:31.293Z,100.00
2023-02-06T09:28:36.807Z,100.00
2023-02-06T09:33:44.348Z,100.00
2023-02-06T09:38:56.138Z,100.00
2023-02-06T09:44:04.482Z,100.00
2023-02-06T09:49:18.176Z,100.00
2023-02-06T09:54:34.195Z,100.00
2023-02-06T09:59:48.393Z,100.00
2023-02-06T10:05:01.525Z,100.00
2023-02-06T10:10:14.296Z,100.00
2023-02-06T10:15:24.471Z,100.00
2023-02-06T10:20:36.254Z,100.00
2023-02-06T10:25:53.688Z,100.00
2023-02-06T10:31:11.441Z,100.00
2023-02-06T10:36:37.678Z,100.00
2023-02-06T10:41:51.518Z,100.00
2023-02-06T10:46:57.984Z,100.00
2023-02-06T10:52:17.410Z,100.00
2023-02-06T10:57:25.100Z,100.00
2023-02-06T11:02:58.173Z,100.00
2023-02-06T11:08:38.507Z,97.43
2023-02-06T11:13:46.634Z,97.17
2023-02-06T11:18:54.434Z,96.62
2023-02-06T11:24:16.712Z,96.06
2023-02-06T11:29:24.408Z,99.53
2023-02-06T11:34:37.812Z,98.76
2023-02-06T11:39:48.424Z,100.00
2023-02-06T11:45:04.150Z,100.00
2023-02-06T11:50:29.211Z,97.88
2023-02-06T11:55:38.310Z,97.58
2023-02-06T12:00:46.266Z,96.82
2023-02-06T12:05:51.688Z,96.79
2023-02-06T12:11:07.745Z,96.94
2023-02-06T12:16:19.150Z,96.08
2023-02-06T12:21:34.662Z,97.10
2023-02-06T12:26:43.855Z,97.52
2023-02-06T12:31:56.239Z,95.03
2023-02-06T12:37:14.149Z,96.27
2023-02-06T12:42:45.627Z,97.16
2023-02-06T12:47:56.550Z,96.83
2023-02-06T12:53:07.858Z,95.96
2023-02-06T12:58:54.710Z,94.45
2023-02-06T13:04:01.779Z,91.07
2023-02-06T13:09:09.595Z,87.26
2023-02-06T13:14:26.293Z,86.66
2023-02-06T13:19:56.515Z,84.84
2023-02-06T13:25:01.898Z,84.28
2023-02-06T13:30:41.746Z,83.94
2023-02-06T13:36:11.566Z,81.51
2023-02-06T13:41:31.560Z,77.73
2023-02-06T13:52:36.593Z,82.64
2023-02-06T13:58:20.198Z,82.62
2023-02-06T14:03:43.146Z,82.27
2023-02-06T14:09:03.189Z,82.29
2023-02-06T14:14:28.482Z,83.47
2023-02-06T14:19:41.735Z,84.68
2023-02-06T14:25:13.650Z,83.56
2023-02-06T14:30:30.214Z,83.26
2023-02-06T14:35:55.596Z,84.11
2023-02-06T14:41:04.225Z,85.63
2023-02-06T14:46:16.655Z,86.41
2023-02-06T14:51:26.826Z,87.04
2023-02-06T14:56:37.167Z,85.33
2023-02-06T15:01:42.933Z,85.83
2023-02-06T15:06:54.597Z,85.73
2023-02-06T15:12:04.734Z,84.44
2023-02-06T15:17:09.682Z,84.37
2023-02-06T15:22:17.912Z,83.84
2023-02-06T15:27:30.936Z,83.71
2023-02-06T15:32:37.956Z,82.11
2023-02-06T15:37:43.626Z,82.89
2023-02-06T15:42:51.787Z,83.36
2023-02-06T15:47:58.371Z,84.04
2023-02-06T15:53:03.315Z,84.53
2023-02-06T15:58:17.269Z,85.64
2023-02-06T16:03:25.723Z,87.63
2023-02-06T16:08:34.872Z,89.48
2023-02-06T16:13:42.875Z,90.05
2023-02-06T16:18:51.965Z,90.64
2023-02-06T16:24:07.765Z,91.46
2023-02-06T16:29:29.688Z,91.74
2023-02-06T16:34:39.037Z,92.22
2023-02-06T16:39:45.896Z,92.54
2023-02-06T16:44:55.626Z,92.44
2023-02-06T16:50:00.535Z,92.01
2023-02-06T16:55:05.625Z,92.26
2023-02-06T17:00:20.651Z,93.02
2023-02-06T17:05:31.704Z,94.45
2023-02-06T17:10:39.729Z,94.96
2023-02-06T17:15:49.334Z,95.56
2023-02-06T17:20:56.364Z,96.36
2023-02-06T17:26:02.385Z,98.23
2023-02-06T17:31:10.450Z,97.68
2023-02-06T17:36:21.977Z,98.52
2023-02-06T17:41:28.032Z,99.30
2023-02-06T17:46:35.676Z,100.00
2023-02-06T17:51:42.300Z,100.00
2023-02-06T17:56:47.174Z,100.00
2023-02-06T18:01:54.822Z,100.00
2023-02-06T18:07:00.175Z,100.00
2023-02-06T18:12:05.453Z,100.00
2023-02-06T18:17:13.835Z,100.00
2023-02-06T18:22:21.912Z,100.00
2023-02-06T18:27:27.151Z,100.00
2023-02-06T18:32:37.117Z,100.00
2023-02-06T18:37:43.322Z,100.00
2023-02-06T18:42:54.769Z,100.00
2023-02-06T18:48:02.381Z,100.00
2023-02-06T18:53:07.897Z,100.00
2023-02-06T18:58:15.824Z,100.00
2023-02-06T19:03:23.362Z,100.00
2023-02-06T19:08:28.336Z,100.00
2023-02-06T19:13:34.407Z,100.00
2023-02-06T19:18:43.107Z,100.00
2023-02-06T19:23:50.458Z,100.00
2023-02-06T19:28:56.058Z,100.00
2023-02-06T19:34:06.311Z,100.00
2023-02-06T19:39:14.125Z,100.00
2023-02-06T19:44:19.142Z,100.00
2023-02-06T19:49:28.252Z,100.00
2023-02-06T19:54:33.298Z,100.00
2023-02-06T19:59:38.646Z,100.00
2023-02-06T20:04:47.365Z,100.00
2023-02-06T20:09:52.695Z,100.00
2023-02-06T20:14:58.137Z,100.00
2023-02-06T20:20:08.012Z,100.00
2023-02-06T20:25:13.691Z,100.00
2023-02-06T20:30:23.338Z,100.00
2023-02-06T20:35:32.394Z,100.00
2023-02-06T20:40:39.969Z,100.00
2023-02-06T20:45:46.372Z,100.00
2023-02-06T20:50:59.621Z,100.00
2023-02-06T20:56:04.543Z,100.00
2023-02-06T21:01:15.770Z,100.00
2023-02-06T21:06:23.791Z,100.00
2023-02-06T21:11:30.524Z,100.00
2023-02-06T21:16:37.699Z,100.00
2023-02-06T21:21:46.459Z,100.00
2023-02-06T21:26:52.220Z,100.00
2023-02-06T21:32:12.264Z,100.00
2023-02-06T21:37:22.631Z,100.00
2023-02-06T21:42:27.631Z,100.00
2023-02-06T21:47:34.881Z,100.00
2023-02-06T21:52:42.404Z,100.00
2023-02-06T21:57:47.413Z,100.00
2023-02-06T22:02:52.321Z,100.00
2023-02-06T22:07:59.902Z,100.00
2023-02-06T22:13:04.825Z,100.00
2023-02-06T22:18:10.560Z,100.00
2023-02-06T22:23:20.315Z,100.00
2023-02-06T22:28:25.188Z,100.00
2023-02-06T22:33:30.143Z,100.00
2023-02-06T22:38:38.621Z,100.00
2023-02-06T22:43:43.908Z,100.00
2023-02-06T22:48:48.950Z,100.00
2023-02-06T22:53:56.723Z,100.00
2023-02-06T22:59:03.748Z,100.00
2023-02-06T23:04:10.664Z,100.00
2023-02-06T23:09:20.590Z,100.00
2023-02-06T23:14:26.538Z,100.00
2023-02-06T23:19:31.921Z,100.00
2023-02-06T23:24:39.788Z,100.00
2023-02-06T23:29:44.689Z,100.00
2023-02-06T23:34:49.692Z,100.00
2023-02-06T23:39:57.276Z,100.00
2023-02-06T23:45:02.309Z,100.00
2023-02-06T23:50:08.225Z,100.00
2023-02-06T23:55:15.843Z,100.00
